createdAt,value
2023-01-06T00:01:23.104Z,12.68
2023-01-06T00:03:54.511Z,19.55
2023-01-06T00:06:27.858Z,13.38
2023-01-06T00:08:59.617Z,22.10
2023-01-06T00:11:30.860Z,17.17
2023-01-06T00:14:01.838Z,17.67
2023-01-06T00:16:35.025Z,17.83
2023-01-06T00:19:05.951Z,18.77
2023-01-06T00:21:36.323Z,13.25
2023-01-06T00:24:06.983Z,19.00
2023-01-06T00:26:37.175Z,19.27
2023-01-06T00:29:07.798Z,18.10
2023-01-06T00:31:41.703Z,16.98
2023-01-06T00:34:14.148Z,19.33
2023-01-06T00:36:44.528Z,15.48
2023-01-06T00:39:15.719Z,18.83
2023-01-06T00:44:35.119Z,16.13
2023-01-06T00:47:12.758Z,14.55
2023-01-06T00:49:43.178Z,17.98
2023-01-06T00:52:13.733Z,20.60
2023-01-06T00:54:44.508Z,17.92
2023-01-06T00:57:14.862Z,23.88
2023-01-06T00:59:45.194Z,15.18
2023-01-06T01:02:18.280Z,15.00
2023-01-06T01:04:48.725Z,14.57
2023-01-06T01:09:50.213Z,17.63
2023-01-06T01:12:20.627Z,16.70
2023-01-06T01:14:52.834Z,18.17
2023-01-06T01:17:31.778Z,12.48
2023-01-06T01:20:02.715Z,16.05
2023-01-06T01:22:34.487Z,15.05
2023-01-06T01:25:04.803Z,20.48
2023-01-06T01:27:35.137Z,16.70
2023-01-06T01:30:05.416Z,16.37
2023-01-06T01:32:38.350Z,14.93
2023-01-06T01:35:09.973Z,14.18
2023-01-06T01:37:41.901Z,17.77
2023-01-06T01:40:14.426Z,12.00
2023-01-06T01:42:44.714Z,17.27
2023-01-06T01:45:26.383Z,14.77
2023-01-06T01:48:04.662Z,12.13
2023-01-06T01:50:38.970Z,14.70
2023-01-06T01:53:17.119Z,10.80
2023-01-06T01:55:47.720Z,14.27
2023-01-06T01:58:23.689Z,13.65
2023-01-06T02:00:55.291Z,20.73
2023-01-06T02:03:29.625Z,13.10
2023-01-06T02:06:05.788Z,19.17
2023-01-06T02:08:40.509Z,16.88
2023-01-06T02:11:12.012Z,21.55
2023-01-06T02:13:44.957Z,17.50
2023-01-06T02:16:28.700Z,20.65
2023-01-06T02:19:07.690Z,13.60
2023-01-06T02:22:09.992Z,18.63
2023-01-06T02:25:30.811Z,13.23
2023-01-06T02:28:34.130Z,22.08
2023-01-06T02:31:39.170Z,12.57
2023-01-06T02:34:20.997Z,23.17
2023-01-06T02:39:42.832Z,17.45
2023-01-06T02:42:23.151Z,17.02
2023-01-06T02:45:07.074Z,21.45
2023-01-06T02:47:52.585Z,15.63
2023-01-06T02:50:34.164Z,17.33
2023-01-06T02:53:13.575Z,16.42
2023-01-06T02:55:49.093Z,18.95
2023-01-06T02:58:30.554Z,14.23
2023-01-06T03:01:07.785Z,15.98
2023-01-06T03:03:45.758Z,17.00
2023-01-06T03:06:20.618Z,38.88
2023-01-06T03:08:55.168Z,14.18
2023-01-06T03:11:29.233Z,16.42
2023-01-06T03:14:05.804Z,13.90
2023-01-06T03:16:37.364Z,15.38
2023-01-06T03:19:10.874Z,14.43
2023-01-06T03:21:46.186Z,15.43
2023-01-06T03:24:16.984Z,14.13
2023-01-06T03:26:51.227Z,15.52
2023-01-06T03:29:22.888Z,13.60
2023-01-06T03:32:05.080Z,15.98
2023-01-06T03:35:06.132Z,12.75
2023-01-06T03:37:47.771Z,12.60
2023-01-06T03:40:31.895Z,9.02
2023-01-06T03:43:13.671Z,15.50
2023-01-06T03:45:58.512Z,9.80
2023-01-06T03:48:56.605Z,12.02
2023-01-06T03:51:41.574Z,15.63
2023-01-06T03:54:28.452Z,13.02
2023-01-06T03:57:08.304Z,12.40
2023-01-06T03:59:44.733Z,11.00
2023-01-06T04:02:17.261Z,8.30
2023-01-06T04:04:47.799Z,11.35
2023-01-06T04:07:20.867Z,26.98
2023-01-06T04:09:51.160Z,63.05
2023-01-06T04:12:34.586Z,14.45
2023-01-06T04:15:04.978Z,10.27
2023-01-06T04:17:36.475Z,18.48
2023-01-06T04:20:08.229Z,8.95
2023-01-06T04:22:41.700Z,13.27
2023-01-06T04:25:13.307Z,9.25
2023-01-06T04:27:44.200Z,15.05
2023-01-06T04:30:15.878Z,10.30
2023-01-06T04:32:46.867Z,12.05
2023-01-06T04:35:17.532Z,8.75
2023-01-06T04:37:50.822Z,7.93
2023-01-06T04:40:21.124Z,12.10
2023-01-06T04:43:03.769Z,8.30
2023-01-06T04:45:34.115Z,9.30
2023-01-06T04:48:04.505Z,8.75
2023-01-06T04:50:34.934Z,6.93
2023-01-06T04:53:08.489Z,6.43
2023-01-06T04:55:41.389Z,19.15
2023-01-06T04:58:12.281Z,15.93
2023-01-06T05:00:42.709Z,9.55
2023-01-06T05:03:13.057Z,6.28
2023-01-06T05:05:43.402Z,7.13
2023-01-06T05:08:16.335Z,5.57
2023-01-06T05:10:46.613Z,8.40
2023-01-06T05:13:16.898Z,5.03
2023-01-06T05:15:47.149Z,7.47
2023-01-06T05:18:17.423Z,5.70
2023-01-06T05:20:47.733Z,4.47
2023-01-06T05:23:20.708Z,5.47
2023-01-06T05:25:53.498Z,4.55
2023-01-06T05:28:24.262Z,7.13
2023-01-06T05:30:55.819Z,3.58
2023-01-06T05:33:26.120Z,5.35
2023-01-06T05:36:01.156Z,4.80
2023-01-06T05:38:34.503Z,6.82
2023-01-06T05:41:05.428Z,5.50
2023-01-06T05:43:38.113Z,5.22
2023-01-06T05:46:10.121Z,5.50
2023-01-06T05:48:41.585Z,4.70
2023-01-06T05:51:15.057Z,3.75
2023-01-06T05:53:51.592Z,3.58
2023-01-06T05:56:24.059Z,4.28
2023-01-06T05:58:56.602Z,4.35
2023-01-06T06:01:29.181Z,3.83
2023-01-06T06:04:00.124Z,4.18
2023-01-06T06:06:32.557Z,5.72
2023-01-06T06:09:08.820Z,4.88
2023-01-06T06:11:39.180Z,14.82
2023-01-06T06:14:13.163Z,15.85
2023-01-06T06:16:43.470Z,4.80
2023-01-06T06:19:16.135Z,4.28
2023-01-06T06:21:46.437Z,5.85
2023-01-06T06:24:19.400Z,3.30
2023-01-06T06:26:49.750Z,4.05
2023-01-06T06:29:20.260Z,3.03
2023-01-06T06:31:50.658Z,4.63
2023-01-06T06:34:21.264Z,4.72
2023-01-06T06:36:51.636Z,3.63
2023-01-06T06:39:24.687Z,3.88
2023-01-06T06:41:55.013Z,5.72
2023-01-06T06:44:25.396Z,6.43
2023-01-06T06:46:55.779Z,4.45
2023-01-06T06:49:26.116Z,3.70
2023-01-06T06:51:56.460Z,3.40
2023-01-06T06:54:29.371Z,2.57
2023-01-06T06:56:59.685Z,5.47
2023-01-06T06:59:30.071Z,3.95
2023-01-06T07:02:00.509Z,4.68
2023-01-06T07:04:30.945Z,5.20
2023-01-06T07:07:01.426Z,7.55
2023-01-06T07:09:34.497Z,13.15
2023-01-06T07:12:04.793Z,5.28
2023-01-06T07:14:35.185Z,3.17
2023-01-06T07:17:05.589Z,3.47
2023-01-06T07:19:35.996Z,2.85
2023-01-06T07:22:06.349Z,3.33
2023-01-06T07:24:39.328Z,3.55
2023-01-06T07:27:09.596Z,2.85
2023-01-06T07:29:39.919Z,2.70
2023-01-06T07:32:10.442Z,2.40
2023-01-06T07:34:40.797Z,2.55
2023-01-06T07:37:11.130Z,2.53
2023-01-06T07:39:44.133Z,3.27
2023-01-06T07:42:14.886Z,2.90
2023-01-06T07:44:45.173Z,2.10
2023-01-06T07:47:15.483Z,4.30
2023-01-06T07:49:45.743Z,2.53
2023-01-06T07:52:15.948Z,2.10
2023-01-06T07:54:49.020Z,2.65
2023-01-06T07:57:19.392Z,2.97
2023-01-06T07:59:49.719Z,3.20
2023-01-06T08:02:20.205Z,5.40
2023-01-06T08:04:50.777Z,2.88
2023-01-06T08:07:21.395Z,2.97
2023-01-06T08:09:54.425Z,2.85
2023-01-06T08:12:24.895Z,5.00
2023-01-06T08:14:55.326Z,3.22
2023-01-06T08:17:25.775Z,4.03
2023-01-06T08:19:56.189Z,3.75
2023-01-06T08:22:26.567Z,4.15
2023-01-06T08:24:59.589Z,2.67
2023-01-06T08:27:30.875Z,2.67
2023-01-06T08:30:01.227Z,3.05
2023-01-06T08:32:31.559Z,3.95
2023-01-06T08:35:01.925Z,2.97
2023-01-06T08:37:32.291Z,2.55
2023-01-06T08:40:05.368Z,2.45
2023-01-06T08:42:35.750Z,2.47
2023-01-06T08:45:07.848Z,1.85
2023-01-06T08:47:39.066Z,1.98
2023-01-06T08:50:10.367Z,2.38
2023-01-06T08:52:40.711Z,2.15
2023-01-06T08:55:14.149Z,2.25
2023-01-06T08:57:44.498Z,2.85
2023-01-06T09:00:17.198Z,1.90
2023-01-06T09:02:47.642Z,2.30
2023-01-06T09:05:18.548Z,2.30
2023-01-06T09:07:50.732Z,2.53
2023-01-06T09:10:24.577Z,2.40
2023-01-06T09:12:54.988Z,2.33
2023-01-06T09:15:25.418Z,2.10
2023-01-06T09:17:55.798Z,2.10
2023-01-06T09:20:27.265Z,4.40
2023-01-06T09:22:57.654Z,1.35
2023-01-06T09:25:30.839Z,2.88
2023-01-06T09:28:01.728Z,2.33
2023-01-06T09:30:32.357Z,1.40
2023-01-06T09:33:02.761Z,1.45
2023-01-06T09:35:33.115Z,2.03
2023-01-06T09:38:03.558Z,1.65
2023-01-06T09:40:53.333Z,1.98
2023-01-06T09:43:35.936Z,2.00
2023-01-06T09:46:08.793Z,2.83
2023-01-06T09:48:46.274Z,1.92
2023-01-06T09:51:23.415Z,2.05
2023-01-06T09:53:59.870Z,1.90
2023-01-06T09:56:33.981Z,1.45
2023-01-06T09:59:10.738Z,1.90
2023-01-06T10:01:48.808Z,2.75
2023-01-06T10:04:25.201Z,2.20
2023-01-06T10:07:13.520Z,2.20
2023-01-06T10:10:00.593Z,1.70
2023-01-06T10:12:53.924Z,1.65
2023-01-06T10:15:34.363Z,1.88
2023-01-06T10:18:24.441Z,1.88
2023-01-06T10:21:12.570Z,1.77
2023-01-06T10:24:10.951Z,1.60
2023-01-06T10:26:46.615Z,1.40
2023-01-06T10:29:22.402Z,2.33
2023-01-06T10:31:56.873Z,2.67
2023-01-06T10:34:29.229Z,1.33
2023-01-06T10:37:05.708Z,1.70
2023-01-06T10:39:40.123Z,2.10
2023-01-06T10:42:36.962Z,2.95
2023-01-06T10:45:14.030Z,2.58
2023-01-06T10:47:46.588Z,2.28
2023-01-06T10:50:20.123Z,1.85
2023-01-06T10:52:51.831Z,3.13
2023-01-06T10:55:42.938Z,2.15
2023-01-06T10:58:36.512Z,2.65
2023-01-06T11:01:15.996Z,2.35
2023-01-06T11:03:47.613Z,1.80
2023-01-06T11:06:28.692Z,1.75
2023-01-06T11:11:29.682Z,1.67
2023-01-06T11:14:05.643Z,2.15
2023-01-06T11:16:40.156Z,2.08
2023-01-06T11:19:25.686Z,2.08
2023-01-06T11:21:56.236Z,1.90
2023-01-06T11:24:29.319Z,1.92
2023-01-06T11:27:01.770Z,1.75
2023-01-06T11:29:35.674Z,1.40
2023-01-06T11:32:19.117Z,3.58
2023-01-06T11:34:57.190Z,1.70
2023-01-06T11:37:36.932Z,1.90
2023-01-06T11:40:28.383Z,1.85
2023-01-06T11:43:02.483Z,3.80
2023-01-06T11:45:36.976Z,3.55
2023-01-06T11:48:18.027Z,4.28
2023-01-06T11:53:27.482Z,2.38
2023-01-06T11:56:04.073Z,2.75
2023-01-06T11:58:54.709Z,2.97
2023-01-06T12:01:37.838Z,1.80
2023-01-06T12:04:21.364Z,2.53
2023-01-06T12:06:55.443Z,3.25
2023-01-06T12:09:33.283Z,1.70
2023-01-06T12:12:09.147Z,2.22
2023-01-06T12:14:42.276Z,2.00
2023-01-06T12:17:22.527Z,2.70
2023-01-06T12:20:02.101Z,4.60
2023-01-06T12:22:40.117Z,2.25
2023-01-06T12:25:20.814Z,1.60
2023-01-06T12:27:56.304Z,2.55
2023-01-06T12:30:33.073Z,1.50
2023-01-06T12:33:11.004Z,1.70
2023-01-06T12:35:48.449Z,2.85
2023-01-06T12:38:36.274Z,1.35
2023-01-06T12:41:14.781Z,1.38
2023-01-06T12:43:52.185Z,2.13
2023-01-06T12:46:29.419Z,1.60
2023-01-06T12:49:06.030Z,1.45
2023-01-06T12:51:45.510Z,2.38
2023-01-06T12:54:21.763Z,2.42
2023-01-06T12:57:08.356Z,3.05
2023-01-06T12:59:55.414Z,1.30
2023-01-06T13:02:53.778Z,2.95
2023-01-06T13:05:52.850Z,1.08
2023-01-06T13:08:42.764Z,1.98
2023-01-06T13:11:26.413Z,1.67
2023-01-06T13:14:07.854Z,1.83
2023-01-06T13:16:46.998Z,2.67
2023-01-06T13:19:34.725Z,2.15
2023-01-06T13:22:09.214Z,2.78
2023-01-06T13:25:03.875Z,5.82
2023-01-06T13:27:58.936Z,2.03
2023-01-06T13:30:44.330Z,2.35
2023-01-06T13:33:59.073Z,2.88
2023-01-06T13:37:17.582Z,1.52
2023-01-06T13:39:56.794Z,1.20
2023-01-06T13:42:38.440Z,1.70
2023-01-06T13:45:17.862Z,2.45
2023-01-06T13:47:50.251Z,4.40
2023-01-06T13:50:23.910Z,2.30
2023-01-06T13:52:54.968Z,1.95
2023-01-06T13:58:38.669Z,2.70
2023-01-06T14:01:14.469Z,1.73
2023-01-06T14:03:46.354Z,3.15
2023-01-06T14:06:49.448Z,2.08
2023-01-06T14:09:21.818Z,3.40
2023-01-06T14:11:55.030Z,1.80
2023-01-06T14:14:29.674Z,3.28
2023-01-06T14:17:01.146Z,1.58
2023-01-06T14:19:36.570Z,3.15
2023-01-06T14:22:20.262Z,3.80
2023-01-06T14:24:54.793Z,1.67
2023-01-06T14:28:24.749Z,1.80
2023-01-06T14:31:50.405Z,1.58
2023-01-06T14:34:22.337Z,1.95
2023-01-06T14:36:57.005Z,6.47
2023-01-06T14:39:30.244Z,3.03
2023-01-06T14:42:06.381Z,1.67
2023-01-06T14:44:46.746Z,3.65
2023-01-06T14:47:26.104Z,2.30
2023-01-06T14:50:01.280Z,2.63
2023-01-06T14:52:37.543Z,2.17
2023-01-06T14:55:14.138Z,5.60
2023-01-06T14:57:44.502Z,1.92
2023-01-06T15:00:24.326Z,1.30
2023-01-06T15:03:00.492Z,2.97
2023-01-06T15:05:34.879Z,2.30
2023-01-06T15:08:08.174Z,3.33
2023-01-06T15:10:41.852Z,1.85
2023-01-06T15:13:24.974Z,2.42
2023-01-06T15:16:07.738Z,1.90
2023-01-06T15:18:46.675Z,3.03
2023-01-06T15:21:18.105Z,4.97
2023-01-06T15:23:51.089Z,3.83
2023-01-06T15:26:23.988Z,2.75
2023-01-06T15:29:05.923Z,2.13
2023-01-06T15:31:39.063Z,3.85
2023-01-06T15:34:17.465Z,1.90
2023-01-06T15:36:50.584Z,1.52
2023-01-06T15:39:29.074Z,3.58
2023-01-06T15:42:02.444Z,3.58
2023-01-06T15:44:35.738Z,1.85
2023-01-06T15:47:20.973Z,2.05
2023-01-06T15:49:57.679Z,2.05
2023-01-06T15:52:32.608Z,2.75
2023-01-06T15:55:07.394Z,2.47
2023-01-06T15:57:41.896Z,2.17
2023-01-06T16:00:25.871Z,1.88
2023-01-06T16:02:56.675Z,1.75
2023-01-06T16:05:48.751Z,2.90
2023-01-06T16:08:27.306Z,2.53
2023-01-06T16:11:42.178Z,2.65
2023-01-06T16:14:32.426Z,3.92
2023-01-06T16:17:13.303Z,3.13
2023-01-06T16:19:50.628Z,2.92
2023-01-06T16:22:35.703Z,3.00
2023-01-06T16:25:10.374Z,2.97
2023-01-06T16:27:40.830Z,3.50
2023-01-06T16:30:25.562Z,2.03
2023-01-06T16:32:57.258Z,2.15
2023-01-06T16:35:29.797Z,4.75
2023-01-06T16:38:03.717Z,3.72
2023-01-06T16:40:34.579Z,1.65
2023-01-06T16:43:06.141Z,2.63
2023-01-06T16:45:41.829Z,2.50
2023-01-06T16:48:17.126Z,3.00
2023-01-06T16:50:53.267Z,2.65
2023-01-06T16:53:33.754Z,4.13
2023-01-06T16:56:04.868Z,3.00
2023-01-06T17:01:16.885Z,2.80
2023-01-06T17:03:52.759Z,2.70
2023-01-06T17:06:24.924Z,2.60
2023-01-06T17:09:00.013Z,3.10
2023-01-06T17:11:33.395Z,2.90
2023-01-06T17:14:06.998Z,2.80
2023-01-06T17:16:43.168Z,3.97
2023-01-06T17:19:23.369Z,4.22
2023-01-06T17:21:58.078Z,3.13
2023-01-06T17:24:33.814Z,3.30
2023-01-06T17:27:26.739Z,3.67
2023-01-06T17:30:01.730Z,2.45
2023-01-06T17:32:40.370Z,2.88
2023-01-06T17:35:28.265Z,2.42
2023-01-06T17:38:02.223Z,2.38
2023-01-06T17:40:38.573Z,4.35
2023-01-06T17:43:31.320Z,5.35
2023-01-06T17:46:03.467Z,4.45
2023-01-06T17:48:35.241Z,2.88
2023-01-06T17:51:05.641Z,2.55
2023-01-06T17:53:51.492Z,3.53
2023-01-06T17:56:31.409Z,3.22
2023-01-06T17:59:24.684Z,3.38
2023-01-06T18:02:04.831Z,3.53
2023-01-06T18:04:38.368Z,4.13
2023-01-06T18:07:15.053Z,5.32
2023-01-06T18:09:45.421Z,6.22
2023-01-06T18:12:23.497Z,3.50
2023-01-06T18:14:55.926Z,3.72
2023-01-06T18:17:30.221Z,3.30
2023-01-06T18:20:00.568Z,2.88
2023-01-06T18:22:38.380Z,2.90
2023-01-06T18:25:22.180Z,4.20
2023-01-06T18:27:55.307Z,2.40
2023-01-06T18:30:28.575Z,3.35
2023-01-06T18:33:01.731Z,2.83
2023-01-06T18:35:33.041Z,2.78
2023-01-06T18:38:05.722Z,3.25
2023-01-06T18:40:38.248Z,3.17
2023-01-06T18:43:27.961Z,3.05
2023-01-06T18:46:01.296Z,2.70
2023-01-06T18:48:38.596Z,2.38
2023-01-06T18:51:22.002Z,4.28
2023-01-06T18:53:53.864Z,5.93
2023-01-06T18:56:27.554Z,3.00
2023-01-06T18:59:03.393Z,2.90
2023-01-06T19:01:44.191Z,4.63
2023-01-06T19:04:22.350Z,2.95
2023-01-06T19:07:01.412Z,2.88
2023-01-06T19:09:37.474Z,2.95
2023-01-06T19:12:29.504Z,2.85
2023-01-06T19:15:22.791Z,3.90
2023-01-06T19:17:57.777Z,3.05
2023-01-06T19:20:35.193Z,2.75
2023-01-06T19:23:19.024Z,5.47
2023-01-06T19:25:54.965Z,3.20
2023-01-06T19:28:30.503Z,3.65
2023-01-06T19:31:07.902Z,4.93
2023-01-06T19:33:42.618Z,4.18
2023-01-06T19:36:47.129Z,3.75
2023-01-06T19:39:33.733Z,5.38
2023-01-06T19:42:22.878Z,3.75
2023-01-06T19:45:02.879Z,3.88
2023-01-06T19:47:42.825Z,3.83
2023-01-06T19:50:25.350Z,4.90
2023-01-06T19:53:04.203Z,3.13
2023-01-06T19:55:36.209Z,3.10
2023-01-06T19:58:18.060Z,2.85
2023-01-06T20:00:52.577Z,2.90
2023-01-06T20:03:32.908Z,4.63
2023-01-06T20:06:03.404Z,3.83
2023-01-06T20:08:37.160Z,3.78
2023-01-06T20:11:08.088Z,5.72
2023-01-06T20:13:39.090Z,4.30
2023-01-06T20:16:11.378Z,3.70
2023-01-06T20:18:44.474Z,4.35
2023-01-06T20:21:14.775Z,4.00
2023-01-06T20:23:45.100Z,4.00
2023-01-06T20:26:15.500Z,4.87
2023-01-06T20:28:46.043Z,3.75
2023-01-06T20:31:16.507Z,3.72
2023-01-06T20:33:49.595Z,4.13
2023-01-06T20:36:19.931Z,3.17
2023-01-06T20:38:50.261Z,3.50
2023-01-06T20:41:21.039Z,2.83
2023-01-06T20:43:51.457Z,3.78
2023-01-06T20:46:21.822Z,3.80
2023-01-06T20:48:54.828Z,4.22
2023-01-06T20:51:25.259Z,4.95
2023-01-06T20:53:55.764Z,3.92
2023-01-06T20:56:26.279Z,10.07
2023-01-06T20:58:56.651Z,3.92
2023-01-06T21:01:27.182Z,3.10
2023-01-06T21:04:00.258Z,3.85
2023-01-06T21:06:30.648Z,3.00
2023-01-06T21:09:01.037Z,4.38
2023-01-06T21:11:31.462Z,4.80
2023-01-06T21:14:01.845Z,4.23
2023-01-06T21:16:32.237Z,3.60
2023-01-06T21:19:05.293Z,3.70
2023-01-06T21:21:35.594Z,5.65
2023-01-06T21:24:06.124Z,5.95
2023-01-06T21:26:36.707Z,5.68
2023-01-06T21:29:07.017Z,3.90
2023-01-06T21:31:37.326Z,3.17
2023-01-06T21:34:10.524Z,4.88
2023-01-06T21:36:40.980Z,3.05
2023-01-06T21:39:12.026Z,4.25
2023-01-06T21:44:24.816Z,3.67
2023-01-06T21:46:55.185Z,3.77
2023-01-06T21:49:28.194Z,6.50
2023-01-06T21:51:59.729Z,3.17
2023-01-06T21:54:30.078Z,3.75
2023-01-06T21:57:00.682Z,5.00
2023-01-06T21:59:31.139Z,3.25
2023-01-06T22:02:01.637Z,4.05
2023-01-06T22:04:34.750Z,3.20
2023-01-06T22:07:09.356Z,3.20
2023-01-06T22:09:40.604Z,2.95
2023-01-06T22:12:14.856Z,3.70
2023-01-06T22:14:46.212Z,3.17
2023-01-06T22:17:16.902Z,4.80
2023-01-06T22:19:51.574Z,3.65
2023-01-06T22:22:22.932Z,3.25
2023-01-06T22:24:55.050Z,2.90
2023-01-06T22:27:25.949Z,5.38
2023-01-06T22:29:56.242Z,2.88
2023-01-06T22:32:27.776Z,3.27
2023-01-06T22:35:00.870Z,3.13
2023-01-06T22:37:31.187Z,6.68
2023-01-06T22:40:01.634Z,2.95
2023-01-06T22:42:31.982Z,3.00
2023-01-06T22:45:02.363Z,3.03
2023-01-06T22:47:32.738Z,2.55
2023-01-06T22:50:05.656Z,3.90
2023-01-06T22:52:35.980Z,6.90
2023-01-06T22:55:07.273Z,3.38
2023-01-06T22:57:37.580Z,3.17
2023-01-06T23:00:15.129Z,2.87
2023-01-06T23:02:45.773Z,2.85
2023-01-06T23:05:18.944Z,3.95
2023-01-06T23:07:49.312Z,3.33
2023-01-06T23:10:19.831Z,4.40
2023-01-06T23:12:52.473Z,2.70
2023-01-06T23:15:22.748Z,4.40
2023-01-06T23:17:53.124Z,3.22
2023-01-06T23:20:26.065Z,3.63
2023-01-06T23:22:56.383Z,4.00
2023-01-06T23:25:27.213Z,3.43
2023-01-06T23:27:57.538Z,3.65
2023-01-06T23:30:27.873Z,3.60
2023-01-06T23:32:58.213Z,2.72
2023-01-06T23:35:31.906Z,3.00
2023-01-06T23:38:03.555Z,3.22
2023-01-06T23:40:34.329Z,3.45
2023-01-06T23:43:04.664Z,5.88
2023-01-06T23:45:35.223Z,3.35
2023-01-06T23:48:05.653Z,3.22
2023-01-06T23:50:38.756Z,5.28
2023-01-06T23:53:09.032Z,3.47
2023-01-06T23:55:39.340Z,3.60
2023-01-06T23:58:09.628Z,4.25
